Time;durP1;ratioP1;P1;durP2;ratioP2;P2;SDS_P1;SDS_P2;PMS_P1;PMS_P2;Temp;Humidity;BMP_temperature;BMP_pressure;BME280_temperature;BME280_humidity;BME280_pressure;Samples;Min_cycle;Max_cycle;Signal;HPM_P1;HPM_P2
2022/12/21 06:21:16;;;;;;;71.10;31.33;;;;;;;;;;4955687;23;20059;-63
2022/12/21 06:23:43;;;;;;;70.20;33.60;;;;;;;;;;4915257;29;20024;-60
2022/12/21 06:26:11;;;;;;;69.53;32.95;;;;;;;;;;4915439;29;20115;-62
2022/12/21 06:28:37;;;;;;;74.47;34.50;;;;;;;;;;4897527;29;20685;-62
2022/12/21 06:31:07;;;;;;;72.80;33.38;;;;;;;;;;4914330;29;20032;-63
2022/12/21 06:33:34;;;;;;;71.57;33.70;;;;;;;;;;4914816;29;20388;-70
2022/12/21 06:36:00;;;;;;;76.95;34.65;;;;;;;;;;4914527;29;20039;-69
2022/12/21 06:38:26;;;;;;;71.75;35.45;;;;;;;;;;4913833;29;20032;-61
2022/12/21 06:40:56;;;;;;;83.10;37.53;;;;;;;;;;4913843;29;20551;-62
2022/12/21 06:43:23;;;;;;;76.82;36.78;;;;;;;;;;4911507;29;20032;-62
2022/12/21 06:45:53;;;;;;;78.18;37.55;;;;;;;;;;4914606;29;20024;-61
2022/12/21 06:48:19;;;;;;;84.68;36.83;;;;;;;;;;4914153;29;20024;-66
2022/12/21 06:50:45;;;;;;;80.38;38.00;;;;;;;;;;4913460;29;20119;-62
2022/12/21 06:53:11;;;;;;;89.63;40.72;;;;;;;;;;4896270;29;20119;-66
2022/12/21 06:55:37;;;;;;;101.35;45.88;;;;;;;;;;4896208;29;20507;-62
2022/12/21 06:58:03;;;;;;;88.15;41.38;;;;;;;;;;4896300;29;20040;-64
2022/12/21 07:00:29;;;;;;;84.82;40.90;;;;;;;;;;4896185;29;20046;-62
2022/12/21 07:02:55;;;;;;;90.05;39.35;;;;;;;;;;4896061;29;20035;-65
2022/12/21 07:05:22;;;;;;;91.43;41.13;;;;;;;;;;4895886;29;20401;-63
2022/12/21 07:07:48;;;;;;;90.30;42.33;;;;;;;;;;4896042;29;20028;-64
2022/12/21 07:10:14;;;;;;;88.50;40.42;;;;;;;;;;4895995;29;20029;-63
2022/12/21 07:12:40;;;;;;;94.93;43.45;;;;;;;;;;4905730;29;20411;-62
2022/12/21 07:15:06;;;;;;;90.45;43.10;;;;;;;;;;4913918;29;20570;-62
2022/12/21 07:17:32;;;;;;;91.90;42.67;;;;;;;;;;4913832;29;20040;-63
2022/12/21 07:19:58;;;;;;;93.07;42.78;;;;;;;;;;4905728;29;20484;-62
2022/12/21 07:22:24;;;;;;;98.30;44.08;;;;;;;;;;4895857;29;20410;-62
2022/12/21 07:24:50;;;;;;;94.82;42.58;;;;;;;;;;4895784;29;20083;-67
2022/12/21 07:27:16;;;;;;;97.25;43.85;;;;;;;;;;4895867;29;20103;-65
2022/12/21 07:29:42;;;;;;;92.25;44.75;;;;;;;;;;4896394;29;20168;-69
2022/12/21 07:32:08;;;;;;;98.10;44.47;;;;;;;;;;4895412;29;20076;-63
2022/12/21 07:34:34;;;;;;;111.22;47.10;;;;;;;;;;4896183;29;20484;-64
2022/12/21 07:37:00;;;;;;;100.25;46.20;;;;;;;;;;4899559;29;20164;-63
2022/12/21 07:39:26;;;;;;;99.18;46.30;;;;;;;;;;4899568;29;20068;-65
2022/12/21 07:41:52;;;;;;;98.68;45.90;;;;;;;;;;4899781;29;20025;-63
2022/12/21 07:44:18;;;;;;;106.18;47.13;;;;;;;;;;4898734;29;20035;-64
2022/12/21 07:46:44;;;;;;;105.47;49.55;;;;;;;;;;4898185;29;20401;-64
2022/12/21 07:49:10;;;;;;;107.72;49.95;;;;;;;;;;4897815;29;20048;-65
2022/12/21 07:51:36;;;;;;;106.55;49.00;;;;;;;;;;4898740;29;20499;-66
2022/12/21 07:54:02;;;;;;;108.65;47.80;;;;;;;;;;4898915;29;20032;-65
2022/12/21 07:56:28;;;;;;;112.50;49.97;;;;;;;;;;4899003;29;20160;-66
2022/12/21 07:58:54;;;;;;;116.63;50.75;;;;;;;;;;4899097;29;20489;-62
2022/12/21 08:01:20;;;;;;;117.28;51.47;;;;;;;;;;4899220;29;20026;-63
2022/12/21 08:03:47;;;;;;;126.25;52.35;;;;;;;;;;4899170;29;20489;-63
2022/12/21 08:06:13;;;;;;;133.80;57.97;;;;;;;;;;4898147;29;20035;-63
2022/12/21 08:08:40;;;;;;;149.32;60.05;;;;;;;;;;4897797;29;20605;-64
2022/12/21 08:11:10;;;;;;;134.80;57.95;;;;;;;;;;4881306;29;20033;-64
2022/12/21 08:13:36;;;;;;;137.77;56.55;;;;;;;;;;4898255;29;20056;-64
2022/12/21 08:16:03;;;;;;;151.32;59.75;;;;;;;;;;4897903;29;20124;-63
2022/12/21 08:18:29;;;;;;;150.70;62.58;;;;;;;;;;4897675;29;20017;-63
2022/12/21 08:20:56;;;;;;;135.23;59.33;;;;;;;;;;4898413;29;20059;-63
2022/12/21 08:23:22;;;;;;;131.50;56.92;;;;;;;;;;4898150;29;20035;-62
2022/12/21 08:25:48;;;;;;;122.13;54.20;;;;;;;;;;4898352;29;20043;-63
2022/12/21 08:28:14;;;;;;;116.63;52.75;;;;;;;;;;4899000;29;20060;-62
2022/12/21 08:30:41;;;;;;;116.80;51.80;;;;;;;;;;4898916;29;20025;-63
2022/12/21 08:33:07;;;;;;;113.60;52.58;;;;;;;;;;4898966;29;20035;-64
2022/12/21 08:35:33;;;;;;;110.68;52.38;;;;;;;;;;4898786;29;20024;-65
2022/12/21 08:37:59;;;;;;;110.72;52.03;;;;;;;;;;4899130;29;20055;-64
2022/12/21 08:40:25;;;;;;;107.22;52.00;;;;;;;;;;4898478;29;20462;-64
2022/12/21 08:42:51;;;;;;;109.47;51.40;;;;;;;;;;4881813;29;20031;-64
2022/12/21 08:45:17;;;;;;;110.22;50.95;;;;;;;;;;4898826;29;20107;-65
2022/12/21 08:47:43;;;;;;;100.88;50.83;;;;;;;;;;4898059;29;20025;-67
2022/12/21 08:50:09;;;;;;;100.82;48.10;;;;;;;;;;4898560;29;20032;-65
2022/12/21 08:52:35;;;;;;;95.32;46.67;;;;;;;;;;4898611;29;20099;-66
2022/12/21 08:55:01;;;;;;;92.07;46.00;;;;;;;;;;4898609;29;20186;-66
2022/12/21 08:57:27;;;;;;;96.35;46.35;;;;;;;;;;4898440;29;20103;-66
2022/12/21 08:59:53;;;;;;;95.95;46.10;;;;;;;;;;4898469;29;20063;-64
2022/12/21 09:02:20;;;;;;;95.30;45.17;;;;;;;;;;4898448;29;20154;-66
2022/12/21 09:04:46;;;;;;;90.57;44.35;;;;;;;;;;4898323;29;20115;-65
2022/12/21 09:07:12;;;;;;;91.10;44.45;;;;;;;;;;4898027;29;20061;-65
2022/12/21 09:09:38;;;;;;;92.10;44.80;;;;;;;;;;4897080;29;20084;-64
2022/12/21 09:12:04;;;;;;;92.35;45.65;;;;;;;;;;4879764;29;20076;-64
2022/12/21 09:14:31;;;;;;;96.97;46.47;;;;;;;;;;4897417;29;20035;-65
2022/12/21 09:16:57;;;;;;;97.82;46.78;;;;;;;;;;4897167;29;20110;-65
2022/12/21 09:19:24;;;;;;;92.90;47.13;;;;;;;;;;4896219;29;20048;-65
2022/12/21 09:21:50;;;;;;;100.43;47.05;;;;;;;;;;4879123;29;20464;-65
2022/12/21 09:24:17;;;;;;;99.97;48.40;;;;;;;;;;4895729;29;20036;-65
2022/12/21 09:26:43;;;;;;;99.57;49.22;;;;;;;;;;4896148;29;20460;-65
2022/12/21 09:29:10;;;;;;;104.10;51.42;;;;;;;;;;4896755;29;20054;-64
2022/12/21 09:31:36;;;;;;;109.70;51.22;;;;;;;;;;4896834;29;20025;-65
2022/12/21 09:34:02;;;;;;;106.38;49.17;;;;;;;;;;4896686;29;20024;-65
2022/12/21 09:36:28;;;;;;;102.07;49.17;;;;;;;;;;4879566;29;20448;-64
2022/12/21 09:38:55;;;;;;;99.38;47.47;;;;;;;;;;4879306;29;20043;-65
2022/12/21 09:41:21;;;;;;;93.80;46.78;;;;;;;;;;4896055;29;20624;-64
2022/12/21 09:43:58;;;;;;;99.72;49.30;;;;;;;;;;4896241;29;20048;-64
2022/12/21 09:46:25;;;;;;;95.93;47.03;;;;;;;;;;4897041;29;20380;-64
2022/12/21 09:48:54;;;;;;;94.93;47.38;;;;;;;;;;4896310;29;20108;-65
2022/12/21 09:51:20;;;;;;;99.05;46.00;;;;;;;;;;4896555;29;20043;-65
2022/12/21 09:53:48;;;;;;;91.57;45.35;;;;;;;;;;4896107;29;20469;-65
2022/12/21 09:56:19;;;;;;;94.65;44.17;;;;;;;;;;4896637;29;20029;-65
2022/12/21 09:58:48;;;;;;;93.35;45.22;;;;;;;;;;4876161;29;20032;-65
2022/12/21 10:01:35;;;;;;;86.53;44.67;;;;;;;;;;4897212;29;20029;-65
2022/12/21 10:04:10;;;;;;;86.97;44.33;;;;;;;;;;4897016;29;20505;-65
2022/12/21 10:06:55;;;;;;;93.88;45.08;;;;;;;;;;4897226;29;20039;-65
2022/12/21 10:09:40;;;;;;;89.55;45.45;;;;;;;;;;4878984;29;20059;-65
2022/12/21 10:12:06;;;;;;;85.68;42.75;;;;;;;;;;4893579;29;20516;-65
2022/12/21 10:14:39;;;;;;;95.53;45.72;;;;;;;;;;4897031;29;20544;-65
2022/12/21 10:17:10;;;;;;;98.30;48.30;;;;;;;;;;4897055;29;20036;-66
2022/12/21 10:19:41;;;;;;;94.82;46.88;;;;;;;;;;4896850;29;20144;-65
2022/12/21 10:22:13;;;;;;;101.13;49.30;;;;;;;;;;4896898;29;20029;-66
2022/12/21 10:24:47;;;;;;;93.30;48.75;;;;;;;;;;4895671;29;20115;-65
2022/12/21 10:27:27;;;;;;;93.25;49.20;;;;;;;;;;4878241;29;20093;-65
2022/12/21 10:29:55;;;;;;;101.55;48.78;;;;;;;;;;4888168;29;20037;-66
2022/12/21 10:32:22;;;;;;;106.80;52.33;;;;;;;;;;4896581;29;20025;-65
2022/12/21 10:34:50;;;;;;;101.40;51.00;;;;;;;;;;4896402;29;20553;-65
2022/12/21 10:37:18;;;;;;;103.50;53.65;;;;;;;;;;4895880;29;20029;-65
2022/12/21 10:39:45;;;;;;;111.47;55.75;;;;;;;;;;4895024;29;20068;-65
2022/12/21 10:42:11;;;;;;;116.13;58.10;;;;;;;;;;4895470;29;20038;-66
2022/12/21 10:44:39;;;;;;;100.13;51.78;;;;;;;;;;4895220;29;20021;-65
2022/12/21 10:47:13;;;;;;;103.25;50.15;;;;;;;;;;4895936;29;20064;-64
2022/12/21 10:49:40;;;;;;;103.38;51.60;;;;;;;;;;4895663;29;20028;-64
2022/12/21 10:52:25;;;;;;;101.90;50.20;;;;;;;;;;4896132;29;20040;-65
2022/12/21 10:54:51;;;;;;;95.88;49.53;;;;;;;;;;4878788;29;20037;-64
2022/12/21 10:57:17;;;;;;;91.25;47.33;;;;;;;;;;4895629;29;20499;-64
2022/12/21 10:59:43;;;;;;;91.55;45.95;;;;;;;;;;4896090;29;20048;-65
2022/12/21 11:02:29;;;;;;;88.10;46.35;;;;;;;;;;4895213;29;20025;-65
2022/12/21 11:04:55;;;;;;;81.40;45.10;;;;;;;;;;4895222;29;20094;-65
2022/12/21 11:07:25;;;;;;;77.55;41.72;;;;;;;;;;4894487;29;20028;-64
2022/12/21 11:09:59;;;;;;;87.63;44.60;;;;;;;;;;4894622;29;20446;-64
2022/12/21 11:12:25;;;;;;;82.32;41.53;;;;;;;;;;4892949;29;20017;-63
2022/12/21 11:14:52;;;;;;;77.07;42.38;;;;;;;;;;4894833;29;20056;-63
2022/12/21 11:17:21;;;;;;;74.97;39.88;;;;;;;;;;4895048;29;20027;-65
2022/12/21 11:19:47;;;;;;;84.00;41.75;;;;;;;;;;4894650;29;20242;-65
2022/12/21 11:22:16;;;;;;;79.28;42.55;;;;;;;;;;4895095;29;20049;-63
2022/12/21 11:24:44;;;;;;;84.97;42.78;;;;;;;;;;4896065;29;20632;-65
2022/12/21 11:27:13;;;;;;;88.38;44.78;;;;;;;;;;4895920;29;20497;-64
2022/12/21 11:29:39;;;;;;;77.70;42.97;;;;;;;;;;4895889;29;20497;-64
2022/12/21 11:32:06;;;;;;;80.13;41.63;;;;;;;;;;4879187;29;20043;-64
2022/12/21 11:34:40;;;;;;;86.63;42.33;;;;;;;;;;4895618;29;20032;-65
2022/12/21 11:37:26;;;;;;;82.80;41.97;;;;;;;;;;4895996;29;20107;-64
2022/12/21 11:39:52;;;;;;;83.18;41.88;;;;;;;;;;4895706;29;20072;-64
2022/12/21 11:42:20;;;;;;;80.82;40.13;;;;;;;;;;4895954;29;20059;-64
2022/12/21 11:44:46;;;;;;;69.68;36.50;;;;;;;;;;4896069;29;20107;-66
2022/12/21 11:47:31;;;;;;;67.43;34.78;;;;;;;;;;4896002;29;20085;-63
2022/12/21 11:50:17;;;;;;;64.20;35.33;;;;;;;;;;4895912;29;20438;-64
2022/12/21 11:52:43;;;;;;;72.43;36.17;;;;;;;;;;4895665;29;20116;-65
2022/12/21 11:55:12;;;;;;;71.70;37.08;;;;;;;;;;4895735;29;20536;-65
2022/12/21 11:57:57;;;;;;;69.95;36.13;;;;;;;;;;4896069;29;20468;-64
2022/12/21 12:00:24;;;;;;;68.57;35.88;;;;;;;;;;4895386;29;20452;-66
2022/12/21 12:03:12;;;;;;;71.57;36.97;;;;;;;;;;4894346;29;20037;-64
2022/12/21 12:06:02;;;;;;;73.50;36.55;;;;;;;;;;4893674;29;20103;-65
2022/12/21 12:08:46;;;;;;;75.53;39.35;;;;;;;;;;4797372;29;20042;-64
2022/12/21 12:11:26;;;;;;;83.72;42.63;;;;;;;;;;4799664;29;20489;-64
2022/12/21 12:14:06;;;;;;;94.32;44.10;;;;;;;;;;4797759;29;20043;-64
2022/12/21 12:16:48;;;;;;;87.72;45.03;;;;;;;;;;4798137;29;20048;-65
2022/12/21 12:19:19;;;;;;;82.68;43.75;;;;;;;;;;4797973;29;20141;-64
2022/12/21 12:21:56;;;;;;;92.22;42.88;;;;;;;;;;4799813;29;20146;-64
2022/12/21 12:24:28;;;;;;;81.30;40.88;;;;;;;;;;4803127;29;20531;-65
2022/12/21 12:27:00;;;;;;;86.35;41.65;;;;;;;;;;4803069;29;20108;-65
2022/12/21 12:29:43;;;;;;;88.22;44.22;;;;;;;;;;4803297;29;20038;-65
2022/12/21 12:32:12;;;;;;;84.82;45.08;;;;;;;;;;4800857;29;20039;-65
2022/12/21 12:34:56;;;;;;;89.78;46.70;;;;;;;;;;4802925;29;20096;-64
2022/12/21 12:37:22;;;;;;;85.63;43.22;;;;;;;;;;4803024;29;20030;-65
2022/12/21 12:40:09;;;;;;;80.65;43.13;;;;;;;;;;4802790;29;20055;-64
2022/12/21 12:42:40;;;;;;;87.57;45.10;;;;;;;;;;4802765;29;20033;-64
2022/12/21 12:45:12;;;;;;;68.93;34.85;;;;;;;;;;4836250;29;20044;-64
2022/12/21 12:47:38;;;;;;;93.85;46.80;;;;;;;;;;4897993;29;20098;-64
2022/12/21 12:50:31;;;;;;;84.82;46.95;;;;;;;;;;4898661;29;20044;-64
2022/12/21 12:53:06;;;;;;;87.38;45.45;;;;;;;;;;4862286;29;20133;-65
2022/12/21 12:55:39;;;;;;;84.65;44.50;;;;;;;;;;4880176;29;20032;-63
2022/12/21 12:58:10;;;;;;;88.90;45.45;;;;;;;;;;4897562;29;20108;-64
2022/12/21 13:00:56;;;;;;;89.90;45.83;;;;;;;;;;4898381;29;20119;-65
2022/12/21 13:03:22;;;;;;;89.60;45.22;;;;;;;;;;4897990;29;20157;-65
2022/12/21 13:05:59;;;;;;;90.45;46.35;;;;;;;;;;4897328;29;20119;-64
2022/12/21 13:08:47;;;;;;;91.25;46.65;;;;;;;;;;4897086;29;20052;-65
2022/12/21 13:11:19;;;;;;;97.68;45.65;;;;;;;;;;4897492;29;20032;-64
2022/12/21 13:13:45;;;;;;;82.45;43.75;;;;;;;;;;4897754;29;20397;-63
2022/12/21 13:16:17;;;;;;;89.45;43.53;;;;;;;;;;4898050;29;20040;-63
2022/12/21 13:18:55;;;;;;;93.40;45.65;;;;;;;;;;4896800;29;20032;-64
2022/12/21 13:21:22;;;;;;;88.40;45.03;;;;;;;;;;4893726;29;20177;-64
2022/12/21 13:23:50;;;;;;;88.38;46.72;;;;;;;;;;4897933;29;20104;-65
2022/12/21 13:26:27;;;;;;;122.55;62.22;;;;;;;;;;4897536;29;20036;-65
2022/12/21 13:28:53;;;;;;;126.00;63.72;;;;;;;;;;4896901;29;20116;-67
2022/12/21 13:31:22;;;;;;;129.05;63.35;;;;;;;;;;4879107;29;20531;-65
2022/12/21 13:34:11;;;;;;;119.25;62.10;;;;;;;;;;4895753;29;20092;-66
2022/12/21 13:36:39;;;;;;;135.57;63.50;;;;;;;;;;4880629;29;20036;-65
2022/12/21 13:39:10;;;;;;;131.77;65.75;;;;;;;;;;4909108;29;20040;-68
2022/12/21 13:41:41;;;;;;;133.07;65.47;;;;;;;;;;4897592;29;20119;-65
2022/12/21 13:44:10;;;;;;;139.85;68.47;;;;;;;;;;4897820;29;20044;-65
2022/12/21 13:46:37;;;;;;;149.07;75.90;;;;;;;;;;4897722;29;20112;-66
2022/12/21 13:49:06;;;;;;;149.00;74.50;;;;;;;;;;4897233;29;20043;-70
2022/12/21 13:51:32;;;;;;;157.88;76.32;;;;;;;;;;4897542;29;20041;-65
2022/12/21 13:54:17;;;;;;;154.95;76.32;;;;;;;;;;4897646;29;20031;-69
2022/12/21 13:56:56;;;;;;;150.93;72.90;;;;;;;;;;4880128;29;20033;-65
2022/12/21 13:59:26;;;;;;;139.15;70.53;;;;;;;;;;4897321;29;20082;-69
2022/12/21 14:02:11;;;;;;;140.60;71.35;;;;;;;;;;4897098;29;20029;-66
2022/12/21 14:04:44;;;;;;;136.55;69.95;;;;;;;;;;4879875;29;20065;-66
2022/12/21 14:07:10;;;;;;;140.55;68.90;;;;;;;;;;4897321;29;20043;-68
2022/12/21 14:09:39;;;;;;;141.60;70.70;;;;;;;;;;4896942;29;20033;-65
2022/12/21 14:12:18;;;;;;;138.10;69.63;;;;;;;;;;4896748;29;20041;-65
2022/12/21 14:14:47;;;;;;;141.30;68.85;;;;;;;;;;4878102;29;20120;-65
2022/12/21 14:17:18;;;;;;;140.27;69.55;;;;;;;;;;4873561;29;20139;-66
2022/12/21 14:19:55;;;;;;;146.35;69.32;;;;;;;;;;4896445;29;20096;-67
2022/12/21 14:22:50;;;;;;;136.68;70.10;;;;;;;;;;4895930;29;20024;-68
2022/12/21 14:25:21;;;;;;;144.48;70.53;;;;;;;;;;4820614;29;20046;-65
2022/12/21 14:28:02;;;;;;;151.73;75.22;;;;;;;;;;4820713;29;20061;-64
2022/12/21 14:30:31;;;;;;;142.55;73.20;;;;;;;;;;4820137;29;20065;-65
2022/12/21 14:33:02;;;;;;;150.93;75.90;;;;;;;;;;4820488;29;20035;-65
2022/12/21 14:35:37;;;;;;;158.85;77.57;;;;;;;;;;4828127;29;20115;-64
2022/12/21 14:38:22;;;;;;;159.88;76.97;;;;;;;;;;4838636;29;20040;-64
2022/12/21 14:41:06;;;;;;;156.82;74.15;;;;;;;;;;4838276;29;20478;-64
2022/12/21 14:43:32;;;;;;;166.13;79.72;;;;;;;;;;4838407;29;20041;-67
2022/12/21 14:46:18;;;;;;;170.88;85.63;;;;;;;;;;4838141;29;20037;-65
2022/12/21 14:48:51;;;;;;;170.75;87.13;;;;;;;;;;4838323;29;20072;-65
2022/12/21 14:51:37;;;;;;;171.77;85.78;;;;;;;;;;4838593;29;20042;-68
2022/12/21 14:54:12;;;;;;;174.30;85.80;;;;;;;;;;4823118;29;20201;-64
2022/12/21 14:56:39;;;;;;;174.63;86.80;;;;;;;;;;4838289;29;20414;-64
2022/12/21 14:59:06;;;;;;;164.60;82.90;;;;;;;;;;4837946;29;20044;-64
2022/12/21 15:01:38;;;;;;;178.05;87.32;;;;;;;;;;4872937;29;20076;-67
2022/12/21 15:04:13;;;;;;;174.18;88.38;;;;;;;;;;4914908;29;20091;-66
2022/12/21 15:06:43;;;;;;;180.57;87.35;;;;;;;;;;4914799;29;20636;-65
2022/12/21 15:09:15;;;;;;;185.40;90.63;;;;;;;;;;4914762;29;20378;-65
2022/12/21 15:11:43;;;;;;;181.18;90.40;;;;;;;;;;4914525;29;20496;-63
2022/12/21 15:14:16;;;;;;;181.60;90.72;;;;;;;;;;4914516;29;20028;-65
2022/12/21 15:16:45;;;;;;;188.82;90.90;;;;;;;;;;4914942;29;20462;-63
2022/12/21 15:19:12;;;;;;;194.25;93.63;;;;;;;;;;4897563;29;20497;-64
2022/12/21 15:21:42;;;;;;;193.32;94.50;;;;;;;;;;4914395;29;20060;-64
2022/12/21 15:24:11;;;;;;;207.82;95.00;;;;;;;;;;4914641;29;20043;-70
2022/12/21 15:26:40;;;;;;;206.90;96.97;;;;;;;;;;4914661;29;20024;-64
2022/12/21 15:29:14;;;;;;;210.15;98.90;;;;;;;;;;4914840;29;20055;-64
2022/12/21 15:31:43;;;;;;;211.70;99.10;;;;;;;;;;4897482;29;20117;-64
2022/12/21 15:34:14;;;;;;;214.13;101.72;;;;;;;;;;4897462;29;20074;-64
2022/12/21 15:36:42;;;;;;;229.65;103.07;;;;;;;;;;4914557;29;20540;-64
2022/12/21 15:39:17;;;;;;;231.23;106.55;;;;;;;;;;4914260;29;20044;-69
2022/12/21 15:41:48;;;;;;;223.80;106.47;;;;;;;;;;4914709;29;20040;-65
2022/12/21 15:44:33;;;;;;;172.97;81.67;;;;;;;;;;4914593;29;20028;-64
2022/12/21 15:47:18;;;;;;;240.60;109.70;;;;;;;;;;4914587;29;20255;-64
2022/12/21 15:49:46;;;;;;;253.77;116.13;;;;;;;;;;4914732;29;20110;-63
2022/12/21 15:52:28;;;;;;;253.35;118.22;;;;;;;;;;4914743;29;20036;-63
2022/12/21 15:54:57;;;;;;;257.45;119.22;;;;;;;;;;4914800;29;20040;-69
2022/12/21 15:57:25;;;;;;;237.32;113.45;;;;;;;;;;4917682;29;20247;-68
2022/12/21 15:59:51;;;;;;;251.18;115.78;;;;;;;;;;4918085;29;20036;-69
2022/12/21 16:02:25;;;;;;;257.65;118.28;;;;;;;;;;4918358;29;20484;-68
2022/12/21 16:04:51;;;;;;;295.50;130.55;;;;;;;;;;4918338;29;20133;-68
2022/12/21 16:07:18;;;;;;;299.38;135.15;;;;;;;;;;4918187;29;20024;-68
2022/12/21 16:09:45;;;;;;;276.42;129.52;;;;;;;;;;4917995;29;20113;-67
2022/12/21 16:12:22;;;;;;;272.88;128.02;;;;;;;;;;4908351;29;20032;-64
2022/12/21 16:14:48;;;;;;;263.85;125.03;;;;;;;;;;4897745;29;20060;-66
2022/12/21 16:17:17;;;;;;;248.75;121.18;;;;;;;;;;4898482;29;20032;-66
2022/12/21 16:19:50;;;;;;;249.35;122.88;;;;;;;;;;4898247;29;20156;-65
2022/12/21 16:22:17;;;;;;;223.60;107.63;;;;;;;;;;4897774;29;20029;-65
2022/12/21 16:24:47;;;;;;;233.00;107.25;;;;;;;;;;4897859;29;20048;-65
2022/12/21 16:27:18;;;;;;;192.52;92.13;;;;;;;;;;4897633;29;20488;-66
2022/12/21 16:29:47;;;;;;;209.15;98.35;;;;;;;;;;4895914;29;20048;-65
2022/12/21 16:32:14;;;;;;;229.68;107.25;;;;;;;;;;4881433;29;20146;-65
2022/12/21 16:34:44;;;;;;;283.90;119.28;;;;;;;;;;4898658;29;20085;-65
2022/12/21 16:37:11;;;;;;;289.70;118.22;;;;;;;;;;4898748;29;20550;-66
2022/12/21 16:39:38;;;;;;;293.80;125.30;;;;;;;;;;4881701;29;20059;-66
2022/12/21 16:42:04;;;;;;;252.57;113.18;;;;;;;;;;4904801;29;20120;-65
2022/12/21 16:44:43;;;;;;;235.63;112.40;;;;;;;;;;4898184;29;20029;-65
2022/12/21 16:47:12;;;;;;;231.25;108.68;;;;;;;;;;4898538;29;20485;-64
2022/12/21 16:49:39;;;;;;;232.05;106.50;;;;;;;;;;4898014;29;20060;-67
2022/12/21 16:52:05;;;;;;;227.60;108.82;;;;;;;;;;4898109;29;20048;-63
2022/12/21 16:54:41;;;;;;;211.70;104.88;;;;;;;;;;4898408;29;20025;-65
2022/12/21 16:57:09;;;;;;;220.23;105.45;;;;;;;;;;4898127;29;20036;-65
2022/12/21 16:59:38;;;;;;;218.90;105.43;;;;;;;;;;4898389;29;20052;-66
2022/12/21 17:02:14;;;;;;;214.18;103.30;;;;;;;;;;4880496;29;20434;-66
2022/12/21 17:04:40;;;;;;;216.57;107.07;;;;;;;;;;4898134;29;20043;-65
2022/12/21 17:07:07;;;;;;;209.60;106.60;;;;;;;;;;4898047;29;20107;-67
2022/12/21 17:09:41;;;;;;;206.25;102.78;;;;;;;;;;4897756;29;20386;-66
2022/12/21 17:12:28;;;;;;;209.85;104.15;;;;;;;;;;4897941;29;20075;-66
2022/12/21 17:14:54;;;;;;;211.30;103.80;;;;;;;;;;4821073;29;20054;-66
2022/12/21 17:17:21;;;;;;;202.45;99.90;;;;;;;;;;4819825;29;20057;-66
2022/12/21 17:20:10;;;;;;;205.52;101.35;;;;;;;;;;4820191;29;20046;-66
2022/12/21 17:22:38;;;;;;;206.68;101.30;;;;;;;;;;4749059;30;20126;-66
2022/12/21 17:25:10;;;;;;;191.38;98.13;;;;;;;;;;4749279;30;20063;-65
2022/12/21 17:27:46;;;;;;;198.75;98.60;;;;;;;;;;4749471;30;20532;-65
2022/12/21 17:30:13;;;;;;;181.73;93.15;;;;;;;;;;4750113;30;20494;-66
2022/12/21 17:32:39;;;;;;;185.77;92.80;;;;;;;;;;4749667;29;20076;-65
2022/12/21 17:35:06;;;;;;;168.70;88.80;;;;;;;;;;4749778;30;20047;-65
2022/12/21 17:37:32;;;;;;;168.75;84.97;;;;;;;;;;4749445;30;20040;-66
2022/12/21 17:39:58;;;;;;;154.98;78.25;;;;;;;;;;4749277;30;20067;-65
2022/12/21 17:42:24;;;;;;;178.93;86.15;;;;;;;;;;4748499;30;20035;-66
2022/12/21 17:44:51;;;;;;;226.82;105.22;;;;;;;;;;4747522;30;20047;-66
2022/12/21 17:47:26;;;;;;;201.00;96.10;;;;;;;;;;4748047;30;20401;-66
2022/12/21 17:49:52;;;;;;;206.15;101.15;;;;;;;;;;4748045;30;20043;-65
2022/12/21 17:52:18;;;;;;;217.48;104.68;;;;;;;;;;4759802;30;20083;-66
2022/12/21 17:54:45;;;;;;;214.77;101.85;;;;;;;;;;4764258;30;20047;-66
2022/12/21 17:57:14;;;;;;;199.02;97.28;;;;;;;;;;4765450;30;20076;-65
2022/12/21 17:59:41;;;;;;;189.30;89.55;;;;;;;;;;4815091;29;20057;-65
2022/12/21 18:02:14;;;;;;;168.07;81.93;;;;;;;;;;4858975;29;20108;-65
2022/12/21 18:04:40;;;;;;;152.82;77.45;;;;;;;;;;4853568;29;20033;-65
2022/12/21 18:07:13;;;;;;;154.85;78.38;;;;;;;;;;4858250;29;20094;-65
2022/12/21 18:09:39;;;;;;;149.25;75.60;;;;;;;;;;4851701;29;20582;-64
2022/12/21 18:12:10;;;;;;;160.15;77.25;;;;;;;;;;4853628;29;20078;-65
2022/12/21 18:14:36;;;;;;;136.80;68.63;;;;;;;;;;4857809;29;20037;-64
2022/12/21 18:17:02;;;;;;;137.23;70.65;;;;;;;;;;4858581;29;20037;-64
2022/12/21 18:19:28;;;;;;;137.15;71.55;;;;;;;;;;4859303;29;20120;-64
2022/12/21 18:21:54;;;;;;;136.07;72.82;;;;;;;;;;4896188;29;20052;-64
2022/12/21 18:24:20;;;;;;;132.30;68.43;;;;;;;;;;4901530;29;20461;-64
2022/12/21 18:26:46;;;;;;;125.90;66.55;;;;;;;;;;4902797;29;20430;-64
2022/12/21 18:29:15;;;;;;;124.68;65.90;;;;;;;;;;4896019;29;20356;-63
2022/12/21 18:31:41;;;;;;;126.30;66.95;;;;;;;;;;4892748;29;20031;-63
2022/12/21 18:34:09;;;;;;;136.45;70.38;;;;;;;;;;4894208;29;20079;-63
2022/12/21 18:36:35;;;;;;;130.10;67.20;;;;;;;;;;4894502;29;20087;-63
2022/12/21 18:39:02;;;;;;;126.32;66.82;;;;;;;;;;4893400;29;20092;-64
2022/12/21 18:41:28;;;;;;;128.70;66.88;;;;;;;;;;4893987;29;20799;-62
2022/12/21 18:43:54;;;;;;;128.90;66.18;;;;;;;;;;4893704;29;20037;-63
2022/12/21 18:46:20;;;;;;;128.70;69.47;;;;;;;;;;4893843;29;20032;-63
2022/12/21 18:48:47;;;;;;;143.60;74.15;;;;;;;;;;4893879;29;20428;-64
2022/12/21 18:51:24;;;;;;;145.68;74.82;;;;;;;;;;4894925;29;20024;-63
2022/12/21 18:53:51;;;;;;;264.52;118.50;;;;;;;;;;4891948;29;20039;-63
2022/12/21 18:56:17;;;;;;;159.57;77.72;;;;;;;;;;4877351;29;20524;-65
2022/12/21 18:58:43;;;;;;;149.15;74.50;;;;;;;;;;4895366;29;20041;-64
2022/12/21 19:01:11;;;;;;;185.40;89.25;;;;;;;;;;4895968;29;20115;-63
2022/12/21 19:03:37;;;;;;;204.73;102.93;;;;;;;;;;4895795;29;20055;-63
2022/12/21 19:06:03;;;;;;;251.80;119.90;;;;;;;;;;4879302;29;20528;-64
2022/12/21 19:08:29;;;;;;;241.90;117.80;;;;;;;;;;4895893;29;20036;-63
2022/12/21 19:10:55;;;;;;;230.60;112.05;;;;;;;;;;4896081;29;20036;-63
2022/12/21 19:13:32;;;;;;;201.65;102.55;;;;;;;;;;4895430;29;20036;-65
2022/12/21 19:15:59;;;;;;;182.85;93.97;;;;;;;;;;4895768;29;20143;-62
2022/12/21 19:18:26;;;;;;;166.73;89.07;;;;;;;;;;4895959;29;20474;-63
2022/12/21 19:20:53;;;;;;;161.85;85.55;;;;;;;;;;4895631;29;20060;-63
2022/12/21 19:23:21;;;;;;;176.60;91.53;;;;;;;;;;4878666;29;20069;-64
2022/12/21 19:25:48;;;;;;;159.23;80.72;;;;;;;;;;4895063;29;20035;-63
2022/12/21 19:28:15;;;;;;;154.80;77.72;;;;;;;;;;4894942;29;20489;-62
2022/12/21 19:30:41;;;;;;;158.18;78.68;;;;;;;;;;4893930;29;20037;-63
2022/12/21 19:33:07;;;;;;;183.55;99.05;;;;;;;;;;4895416;29;20112;-63
2022/12/21 19:35:34;;;;;;;180.45;91.43;;;;;;;;;;4895472;29;20390;-62
2022/12/21 19:38:01;;;;;;;151.45;79.95;;;;;;;;;;4893715;29;20037;-62
2022/12/21 19:40:38;;;;;;;148.20;80.38;;;;;;;;;;4894178;29;20037;-63
2022/12/21 19:43:05;;;;;;;142.38;73.93;;;;;;;;;;4895293;29;20045;-63
2022/12/21 19:45:31;;;;;;;148.52;78.78;;;;;;;;;;4892374;29;20059;-62
2022/12/21 19:47:57;;;;;;;164.25;86.50;;;;;;;;;;4894788;29;20473;-62
2022/12/21 19:50:27;;;;;;;158.15;82.78;;;;;;;;;;4895138;29;20039;-63
2022/12/21 19:52:53;;;;;;;241.40;129.77;;;;;;;;;;4895415;29;20060;-62
2022/12/21 19:55:21;;;;;;;174.35;91.75;;;;;;;;;;4895408;29;20036;-63
2022/12/21 19:57:58;;;;;;;176.05;93.32;;;;;;;;;;4895517;29;20037;-63
2022/12/21 20:00:26;;;;;;;183.20;95.88;;;;;;;;;;4895301;29;20041;-62
2022/12/21 20:02:52;;;;;;;172.93;94.13;;;;;;;;;;4894830;29;20136;-66
2022/12/21 20:05:20;;;;;;;143.65;74.22;;;;;;;;;;4895220;29;20040;-62
2022/12/21 20:07:46;;;;;;;139.85;69.32;;;;;;;;;;4878549;29;20107;-65
2022/12/21 20:10:12;;;;;;;140.52;71.93;;;;;;;;;;4895182;29;20036;-65
2022/12/21 20:12:39;;;;;;;141.93;70.45;;;;;;;;;;4895436;29;20029;-64
2022/12/21 20:15:06;;;;;;;143.60;70.50;;;;;;;;;;4895454;29;20789;-64
2022/12/21 20:17:32;;;;;;;125.47;64.38;;;;;;;;;;4894050;29;20021;-64
2022/12/21 20:19:58;;;;;;;126.97;64.85;;;;;;;;;;4894680;29;20116;-64
2022/12/21 20:22:24;;;;;;;106.78;53.67;;;;;;;;;;4894476;29;20040;-64
2022/12/21 20:24:50;;;;;;;113.20;55.17;;;;;;;;;;4894027;29;20033;-63
2022/12/21 20:27:18;;;;;;;105.53;51.10;;;;;;;;;;4895239;29;20025;-64
2022/12/21 20:29:44;;;;;;;106.75;52.67;;;;;;;;;;4877578;29;20046;-64
2022/12/21 20:32:12;;;;;;;117.47;57.28;;;;;;;;;;4894598;29;20033;-63
2022/12/21 20:34:38;;;;;;;110.88;55.92;;;;;;;;;;4894785;29;20021;-63
2022/12/21 20:37:05;;;;;;;110.60;54.88;;;;;;;;;;4895317;29;20080;-64
2022/12/21 20:39:31;;;;;;;100.05;50.05;;;;;;;;;;4895346;29;20124;-64
2022/12/21 20:44:45;;;;;;;94.57;49.47;;;;;;;;;;4897711;29;20100;-63